Hauptseite
METAR-TAF:

METAR-TAF

Flughäfen :

Flughafen Sylt

Westerland, Deutschland

Breite: 54-55N, Länge: 008-21E, Höhe: 16 m

Beobachtung

Neuester Wetterbericht von vor 39 Minuten, um 04:50 UTC
Wind 16 kt aus Süd/Südwest
Temperatur 14°C
Luftfeuchtigkeit 88%
Luftdruck 1019 hPa
Sichtweite 10 km oder mehr

METAR: EDXW 070450Z AUTO 21016KT 9999 // FEW013/// OVC021/// 14/12 Q1019

Zeit: 07:29 (05:29 UTC)

Prognose

Neuester Wetterbericht von vor 12 Stunden und 29 Minuten, um 17:00 UTC
Gültige Prognose vom 06 um 18 UTC bis 06 um 21 UTC
Wind 20 kt aus West/Südwest
Sichtweite 10 km oder mehr
Aufgelockert bewölkt in der Höhe von 3000 ft
Zeitweise
vom 06 um 18 UTC bis 06 um 21 UTC
Wind 25 kt aus Südwest, Böen bis zu 35 kt

TAF: EDXW 061700Z 0618/0621 25020KT 9999 SCT030 TEMPO 0618/0621 22025G35KT

Wetterbeobachtungen und Prognosen von mehr als 4000 Flughäfen (METAR und TAF Bericht).

Die verfügbaren Stationen werden durch gelbe und rote Markierungen auf der Karte dargestellt.

Führen Sie die Maus auf sie, um den Namen der Station zu sehen.

Darauf klicken, um die Beobachtung von Wetterbeobachtungen und Prognosen zu sehen.

Um die Karte zu ändern : klicken Sie auf den grünen Tasten mit einem schwarzen Kreuz Zum Vergrößern, auf den grünen Button mit einem Gedankenstrich zu verkleinern, oder auf die grünen Pfeile für benachbarte Karten.


METAR-TAF: